Time;durP1;ratioP1;P1;durP2;ratioP2;P2;SDS_P1;SDS_P2;PMS_P1;PMS_P2;Temp;Humidity;BMP_temperature;BMP_pressure;BME280_temperature;BME280_humidity;BME280_pressure;Samples;Min_cycle;Max_cycle;Signal;HPM_P1;HPM_P2
2022/09/15 00:00:28;;;;;;;2.47;1.30;;;;;;;20.79;76.90;94736.97;4936776;29;20224;-83
2022/09/15 00:02:54;;;;;;;1.52;1.30;;;;;;;20.86;77.14;94734.91;4936867;29;20202;-83
2022/09/15 00:05:21;;;;;;;4.80;1.58;;;;;;;20.83;76.71;94736.19;4936588;28;20229;-83
2022/09/15 00:07:47;;;;;;;2.33;1.35;;;;;;;20.82;76.52;94736.47;4937888;29;20245;-83
2022/09/15 00:10:14;;;;;;;2.78;1.40;;;;;;;20.79;76.69;94734.34;4936477;29;20238;-83
2022/09/15 00:12:40;;;;;;;1.58;1.48;;;;;;;20.79;76.87;94731.75;4936547;29;20210;-83
2022/09/15 00:15:07;;;;;;;2.28;1.42;;;;;;;20.76;77.00;94725.22;4934427;28;20236;-83
2022/09/15 00:17:35;;;;;;;4.78;1.48;;;;;;;20.70;77.18;94726.25;4935623;29;20261;-83
2022/09/15 00:20:04;;;;;;;2.75;1.33;;;;;;;20.71;76.67;94721.81;4934965;29;20221;-83
2022/09/15 00:22:30;;;;;;;2.47;1.50;;;;;;;20.66;76.88;94720.75;4936373;29;20212;-83
2022/09/15 00:24:57;;;;;;;2.45;1.40;;;;;;;20.73;76.96;94717.09;4939868;28;20241;-83
2022/09/15 00:27:23;;;;;;;1.80;1.33;;;;;;;20.69;77.05;94719.44;4940610;29;20201;-83
2022/09/15 00:29:50;;;;;;;1.58;1.30;;;;;;;20.65;76.51;94718.41;4939654;29;20197;-81
2022/09/15 00:32:16;;;;;;;3.10;1.30;;;;;;;20.60;75.98;94713.94;4940829;29;20633;-81
2022/09/15 00:34:44;;;;;;;1.65;1.20;;;;;;;20.66;75.99;94712.13;4939473;28;20225;-81
2022/09/15 00:37:11;;;;;;;1.38;1.10;;;;;;;20.74;75.84;94711.63;4940359;29;20197;-80
2022/09/15 00:39:37;;;;;;;1.63;1.38;;;;;;;20.81;75.07;94706.88;4940257;29;20204;-80
2022/09/15 00:42:04;;;;;;;1.77;1.20;;;;;;;20.86;74.93;94703.50;4939342;29;20249;-81
2022/09/15 00:44:50;;;;;;;2.72;1.20;;;;;;;20.81;74.75;94701.66;4940643;29;20222;-80
2022/09/15 00:47:19;;;;;;;1.70;1.30;;;;;;;20.76;75.14;94703.50;4936316;29;20229;-81
2022/09/15 00:49:53;;;;;;;2.03;1.10;;;;;;;20.67;75.49;94706.63;4939685;29;20221;-81
2022/09/15 00:52:23;;;;;;;1.85;1.05;;;;;;;20.65;76.32;94703.50;4939660;29;20281;-81
2022/09/15 00:54:54;;;;;;;2.50;1.40;;;;;;;20.69;76.19;94701.13;4939421;28;20285;-81
2022/09/15 00:57:25;;;;;;;2.10;1.20;;;;;;;20.73;76.26;94693.56;4940693;29;20229;-80
2022/09/15 00:59:55;;;;;;;1.90;1.38;;;;;;;20.69;76.61;94693.28;4939058;29;20201;-79
2022/09/15 01:02:24;;;;;;;2.13;1.33;;;;;;;20.67;76.65;94695.38;4939853;29;20206;-81
2022/09/15 01:04:53;;;;;;;1.42;1.30;;;;;;;20.64;77.22;94686.22;4939100;28;20291;-81
2022/09/15 01:07:30;;;;;;;1.10;1.00;;;;;;;20.63;78.20;94695.13;4939878;29;20229;-81
2022/09/15 01:09:59;;;;;;;4.03;1.40;;;;;;;20.68;77.85;94696.97;4939301;29;20208;-81
2022/09/15 01:12:27;;;;;;;2.83;1.30;;;;;;;20.66;77.28;94696.44;4939158;29;20201;-81
2022/09/15 01:14:54;;;;;;;1.25;1.15;;;;;;;20.68;77.45;94692.50;4937609;28;20214;-81
2022/09/15 01:17:29;;;;;;;2.17;1.30;;;;;;;20.72;77.04;94684.16;4939690;29;20231;-81
2022/09/15 01:20:28;;;;;;;2.25;1.40;;;;;;;20.73;77.10;94689.13;4939747;29;20205;-80
2022/09/15 01:23:26;;;;;;;1.50;1.20;;;;;;;20.76;77.14;94691.22;4938805;29;20666;-81
2022/09/15 01:26:11;;;;;;;2.35;1.20;;;;;;;20.74;76.66;94684.66;4938298;28;20602;-81
2022/09/15 01:29:03;;;;;;;3.22;1.40;;;;;;;20.69;77.46;94680.22;4939922;29;20721;-81
2022/09/15 01:33:02;;;;;;;1.42;1.33;;;;;;;20.69;76.56;94685.44;4935775;29;20281;-81
2022/09/15 01:34:28;;;;;;;1.92;1.30;;;;;;;20.66;76.23;94676.28;4936395;29;20221;-81
2022/09/15 01:37:01;;;;;;;2.97;1.48;;;;;;;20.66;75.91;94678.91;4939322;29;20314;-81
2022/09/15 01:39:32;;;;;;;1.80;1.50;;;;;;;20.62;76.07;94674.44;4940377;29;20414;-81
2022/09/15 01:42:01;;;;;;;2.20;1.20;;;;;;;20.51;75.62;94681.50;4939078;29;20312;-81
2022/09/15 01:44:32;;;;;;;1.45;1.05;;;;;;;20.57;75.57;94680.47;4939587;29;20221;-81
2022/09/15 01:47:05;;;;;;;4.10;1.50;;;;;;;20.47;75.41;94683.06;4938839;28;20237;-81
2022/09/15 01:49:38;;;;;;;1.38;1.27;;;;;;;20.43;75.24;94678.63;4930262;29;20198;-81
2022/09/15 01:52:05;;;;;;;1.80;1.45;;;;;;;20.33;75.30;94688.00;4940146;29;20626;-81
2022/09/15 01:54:38;;;;;;;2.25;1.40;;;;;;;20.23;75.19;94684.56;4937359;29;20217;-80
2022/09/15 01:57:05;;;;;;;2.25;1.40;;;;;;;20.29;75.19;94673.88;4935211;29;20213;-81
2022/09/15 01:59:31;;;;;;;1.75;1.30;;;;;;;20.31;74.64;94676.22;4936198;29;20686;-81
2022/09/15 02:02:04;;;;;;;1.60;1.30;;;;;;;20.20;74.85;94674.66;4935435;29;20226;-81
2022/09/15 02:04:38;;;;;;;2.55;1.40;;;;;;;20.19;74.63;94673.06;4935756;29;20787;-81
2022/09/15 02:07:13;;;;;;;2.60;1.42;;;;;;;20.30;74.55;94675.44;4935274;29;20236;-81
2022/09/15 02:09:48;;;;;;;3.13;1.27;;;;;;;20.41;73.55;94680.69;4935798;29;20244;-80
2022/09/15 02:12:19;;;;;;;1.40;1.30;;;;;;;20.45;73.63;94672.09;4930437;29;20708;-81
2022/09/15 02:14:54;;;;;;;2.63;1.30;;;;;;;20.39;73.18;94683.59;4935354;28;20256;-80
2022/09/15 02:17:27;;;;;;;2.28;1.35;;;;;;;20.42;73.01;94677.81;4935999;29;20776;-81
2022/09/15 02:19:57;;;;;;;2.00;1.40;;;;;;;20.43;72.87;94673.38;4935358;29;20225;-81
2022/09/15 02:22:26;;;;;;;1.95;1.20;;;;;;;20.50;72.65;94660.84;4935373;29;20213;-81
2022/09/15 02:25:01;;;;;;;1.42;1.33;;;;;;;20.47;72.50;94674.44;4935638;28;20744;-80
2022/09/15 02:27:30;;;;;;;1.40;1.30;;;;;;;20.50;72.27;94666.09;4936409;29;20205;-81
2022/09/15 02:30:04;;;;;;;2.13;1.50;;;;;;;20.40;72.05;94666.84;4936640;29;20197;-81
2022/09/15 02:32:34;;;;;;;2.03;1.48;;;;;;;20.34;72.60;94668.66;4936868;29;20186;-81
2022/09/15 02:35:05;;;;;;;2.67;1.27;;;;;;;20.39;71.91;94664.50;4936152;28;20612;-80
2022/09/15 02:37:33;;;;;;;2.63;1.50;;;;;;;20.20;71.75;94669.44;4936777;29;20197;-80
2022/09/15 02:40:00;;;;;;;1.70;1.60;;;;;;;20.26;71.63;94676.22;4939778;29;20244;-81
2022/09/15 02:42:28;;;;;;;1.60;1.35;;;;;;;20.33;71.25;94669.69;4939788;29;20229;-81
2022/09/15 02:44:54;;;;;;;2.50;1.48;;;;;;;20.26;71.43;94670.97;4940093;28;20654;-81
2022/09/15 02:47:21;;;;;;;1.65;1.38;;;;;;;20.34;70.70;94666.03;4940645;29;20741;-80
2022/09/15 02:49:49;;;;;;;1.42;1.10;;;;;;;20.33;70.46;94668.91;4939709;29;20213;-81
2022/09/15 02:52:15;;;;;;;2.20;1.40;;;;;;;20.33;70.75;94667.09;4939596;29;20257;-81
2022/09/15 02:54:42;;;;;;;1.75;1.23;;;;;;;20.30;70.64;94677.28;4939334;28;20249;-80
2022/09/15 02:57:09;;;;;;;3.90;1.42;;;;;;;20.38;70.42;94671.56;4932942;29;20289;-80
2022/09/15 03:02:16;;;;;;;1.90;1.50;;;;;;;20.38;70.41;94671.56;4933230;29;20213;-80
2022/09/15 03:04:43;;;;;;;2.70;1.40;;;;;;;20.35;70.13;94672.06;4938436;28;20277;-80
2022/09/15 03:07:11;;;;;;;4.43;1.55;;;;;;;20.38;70.44;94674.19;4939063;29;20674;-81
2022/09/15 03:09:37;;;;;;;3.75;1.30;;;;;;;20.45;69.83;94671.28;4938320;29;20193;-81
2022/09/15 03:12:04;;;;;;;2.15;1.30;;;;;;;20.50;69.88;94671.31;4939032;29;20201;-81
2022/09/15 03:14:31;;;;;;;2.40;1.73;;;;;;;20.44;69.54;94669.72;4939252;29;20240;-81
2022/09/15 03:16:58;;;;;;;2.13;1.38;;;;;;;20.51;69.40;94681.50;4937978;28;20703;-81
2022/09/15 03:19:25;;;;;;;1.83;1.40;;;;;;;20.48;69.75;94678.63;4939255;29;20210;-81
2022/09/15 03:21:51;;;;;;;3.17;1.38;;;;;;;20.38;69.53;94683.84;4938120;29;20221;-80
2022/09/15 03:24:20;;;;;;;2.17;1.30;;;;;;;20.39;69.71;94683.59;4938809;29;20761;-81
2022/09/15 03:26:46;;;;;;;1.40;1.25;;;;;;;20.41;69.62;94683.31;4938326;28;20261;-81
2022/09/15 03:29:13;;;;;;;3.10;1.23;;;;;;;20.42;69.05;94697.97;4939081;29;20198;-81
2022/09/15 03:31:40;;;;;;;2.17;1.20;;;;;;;20.45;69.09;94692.22;4938020;29;20734;-81
2022/09/15 03:34:06;;;;;;;1.90;1.30;;;;;;;20.43;68.81;94682.00;4938940;29;20280;-81
2022/09/15 03:36:33;;;;;;;2.75;1.40;;;;;;;20.47;68.72;94675.22;4937701;28;20229;-80
2022/09/15 03:39:00;;;;;;;1.95;1.23;;;;;;;20.50;68.56;94679.16;4938020;29;20301;-81
2022/09/15 03:41:28;;;;;;;1.40;1.23;;;;;;;20.43;67.99;94678.63;4938030;29;20657;-81
2022/09/15 03:43:55;;;;;;;1.88;1.30;;;;;;;20.46;68.01;94678.09;4939097;29;20634;-81
2022/09/15 03:46:22;;;;;;;1.48;1.00;;;;;;;20.40;68.00;94676.53;4937737;28;20316;-81
2022/09/15 03:48:48;;;;;;;1.25;1.15;;;;;;;20.39;68.10;94673.16;4938175;29;20253;-81
2022/09/15 03:51:14;;;;;;;1.08;1.02;;;;;;;20.45;67.82;94668.69;4937947;29;20194;-81
2022/09/15 03:53:42;;;;;;;2.45;1.40;;;;;;;20.46;67.72;94671.03;4938831;29;20277;-81
2022/09/15 03:56:11;;;;;;;1.45;1.20;;;;;;;20.52;67.27;94677.06;4939000;28;20237;-81
2022/09/15 03:58:39;;;;;;;2.58;1.15;;;;;;;20.53;67.48;94674.19;4938844;29;20260;-81
2022/09/15 04:01:05;;;;;;;1.20;1.10;;;;;;;20.45;67.74;94672.09;4938055;29;20225;-81
2022/09/15 04:03:32;;;;;;;1.20;1.10;;;;;;;20.42;67.83;94669.97;4938820;29;20221;-81
2022/09/15 04:05:58;;;;;;;1.70;1.30;;;;;;;20.38;67.65;94676.81;4938132;28;20304;-81
2022/09/15 04:08:25;;;;;;;1.35;1.20;;;;;;;20.46;67.74;94678.88;4938598;29;20252;-81
2022/09/15 04:10:52;;;;;;;2.85;1.20;;;;;;;20.40;67.91;94674.69;4939274;29;20614;-81
2022/09/15 04:13:18;;;;;;;3.97;1.40;;;;;;;20.41;67.78;94668.41;4939498;29;20229;-81
2022/09/15 04:15:46;;;;;;;4.15;1.20;;;;;;;20.32;68.11;94675.97;4938786;28;20298;-79
2022/09/15 04:18:12;;;;;;;1.35;1.13;;;;;;;20.32;68.14;94662.91;4938809;29;20217;-80
2022/09/15 04:20:39;;;;;;;4.10;1.50;;;;;;;20.30;68.09;94664.97;4938667;29;20198;-79
2022/09/15 04:23:06;;;;;;;1.60;1.05;;;;;;;20.34;67.84;94667.88;4937181;29;20771;-79
2022/09/15 04:25:32;;;;;;;2.20;1.27;;;;;;;20.41;67.76;94665.81;4938829;28;20308;-80
2022/09/15 04:27:58;;;;;;;1.20;1.10;;;;;;;20.37;67.75;94666.59;4939896;29;20557;-80
2022/09/15 04:30:25;;;;;;;2.10;1.00;;;;;;;20.35;67.27;94665.00;4938197;29;20205;-80
2022/09/15 04:32:53;;;;;;;1.35;1.02;;;;;;;20.27;67.74;94651.63;4939765;29;20209;-78
2022/09/15 04:35:20;;;;;;;1.23;1.10;;;;;;;20.13;67.45;94653.19;4939076;28;20231;-79
2022/09/15 04:37:47;;;;;;;1.10;1.00;;;;;;;20.10;67.97;94651.88;4939347;29;20264;-80
2022/09/15 04:40:13;;;;;;;1.65;1.10;;;;;;;20.21;67.71;94655.28;4943249;28;20208;-80
2022/09/15 04:42:41;;;;;;;1.05;1.00;;;;;;;20.12;67.53;94652.41;4943384;29;20570;-80
2022/09/15 04:45:09;;;;;;;1.63;1.10;;;;;;;20.16;67.62;94650.06;4936633;28;20662;-78
2022/09/15 04:47:35;;;;;;;0.90;0.85;;;;;;;20.12;67.70;94651.63;4940690;29;20253;-79
2022/09/15 04:50:03;;;;;;;2.70;1.20;;;;;;;20.07;67.20;94649.00;4936376;29;20213;-79
2022/09/15 04:52:30;;;;;;;2.17;1.00;;;;;;;20.10;67.27;94651.88;4937838;29;20673;-80
2022/09/15 04:54:57;;;;;;;1.88;1.00;;;;;;;20.07;67.27;94644.53;4938563;28;20245;-80
2022/09/15 04:57:23;;;;;;;1.13;1.00;;;;;;;20.01;67.04;94643.75;4939406;29;20273;-80
2022/09/15 04:59:50;;;;;;;1.25;0.90;;;;;;;20.12;66.76;94634.09;4938647;29;20252;-80
2022/09/15 05:02:16;;;;;;;0.73;0.73;;;;;;;20.15;66.25;94632.81;4937520;29;20221;-80
2022/09/15 05:04:42;;;;;;;2.83;2.17;;;;;;;20.26;66.18;94639.63;4938554;28;20221;-80
2022/09/15 05:07:10;;;;;;;1.20;1.10;;;;;;;20.28;65.90;94634.91;4939028;29;20206;-80
2022/09/15 05:09:37;;;;;;;1.20;1.10;;;;;;;20.35;65.98;94646.69;4937352;29;20209;-81
2022/09/15 05:12:04;;;;;;;1.00;0.93;;;;;;;20.42;65.53;94645.66;4938091;29;20208;-80
2022/09/15 05:14:33;;;;;;;2.40;1.45;;;;;;;20.40;65.88;94647.78;4938547;29;20236;-80
2022/09/15 05:16:59;;;;;;;1.15;0.90;;;;;;;20.46;65.42;94647.50;4937840;28;20236;-80
2022/09/15 05:19:26;;;;;;;3.85;3.53;;;;;;;20.46;65.05;94654.56;4937383;29;20225;-79
2022/09/15 05:21:52;;;;;;;2.67;1.40;;;;;;;20.42;65.00;94651.69;4937493;29;20225;-81
2022/09/15 05:24:20;;;;;;;2.03;1.00;;;;;;;20.44;65.05;94661.88;4938304;29;20224;-80
2022/09/15 05:26:46;;;;;;;1.27;1.17;;;;;;;20.37;64.90;94658.75;4938442;28;20233;-81
2022/09/15 05:29:13;;;;;;;2.05;0.93;;;;;;;20.26;65.16;94658.69;4938853;29;20250;-79
2022/09/15 05:31:40;;;;;;;1.10;1.00;;;;;;;20.32;65.42;94659.50;4937931;29;20269;-80
2022/09/15 05:34:06;;;;;;;1.70;0.88;;;;;;;20.22;65.15;94664.69;4939070;29;20296;-80
2022/09/15 05:36:33;;;;;;;0.88;0.88;;;;;;;20.16;65.59;94655.28;4938343;28;20236;-80
2022/09/15 05:39:00;;;;;;;2.15;0.85;;;;;;;20.20;65.29;94672.81;4938400;29;20201;-80
2022/09/15 05:41:29;;;;;;;2.55;0.90;;;;;;;20.20;65.19;94659.75;4938878;29;20240;-80
2022/09/15 05:43:57;;;;;;;0.85;0.85;;;;;;;20.21;65.14;94663.13;4939196;29;20229;-81
2022/09/15 05:46:25;;;;;;;0.95;0.90;;;;;;;20.27;65.21;94662.88;4938986;28;20644;-81
2022/09/15 05:48:54;;;;;;;1.58;0.80;;;;;;;20.24;65.05;94663.41;4938890;29;20221;-81
2022/09/15 05:51:21;;;;;;;1.48;1.20;;;;;;;20.29;65.10;94657.41;4938183;29;20208;-81
2022/09/15 05:53:47;;;;;;;1.58;0.93;;;;;;;20.34;65.19;94662.66;4937911;29;20222;-81
2022/09/15 05:56:16;;;;;;;1.10;0.90;;;;;;;20.42;65.70;94669.19;4937205;28;20865;-81
2022/09/15 05:58:45;;;;;;;1.23;1.13;;;;;;;20.38;64.80;94668.16;4938458;29;20292;-81
2022/09/15 06:01:15;;;;;;;1.10;1.00;;;;;;;20.36;64.76;94671.00;4938885;29;20558;-81
2022/09/15 06:03:42;;;;;;;3.38;1.15;;;;;;;20.49;64.88;94673.13;4939038;29;20229;-81
2022/09/15 06:06:08;;;;;;;0.90;0.90;;;;;;;20.46;64.56;94676.28;4939054;28;20232;-81
2022/09/15 06:08:37;;;;;;;3.58;1.08;;;;;;;20.42;64.75;94672.59;4939014;29;20205;-81
2022/09/15 06:11:06;;;;;;;2.88;0.90;;;;;;;20.50;65.04;94672.09;4937895;29;20201;-81
2022/09/15 06:13:32;;;;;;;0.93;0.90;;;;;;;20.52;64.56;94682.31;4936803;29;20248;-81
2022/09/15 06:16:06;;;;;;;1.35;1.25;;;;;;;20.56;64.50;94680.75;4936601;28;20346;-84
2022/09/15 06:18:34;;;;;;;1.50;1.10;;;;;;;20.55;64.50;94684.41;4934384;29;20280;-83
2022/09/15 06:21:04;;;;;;;1.00;0.80;;;;;;;20.56;64.95;94676.28;4936337;29;20732;-81
2022/09/15 06:23:31;;;;;;;1.17;1.00;;;;;;;20.47;64.63;94672.63;4936586;29;20233;-81
2022/09/15 06:26:06;;;;;;;2.33;0.82;;;;;;;20.51;64.81;94678.91;4936525;28;20312;-81
2022/09/15 06:28:33;;;;;;;1.23;1.10;;;;;;;20.43;65.56;94679.41;4937782;29;20213;-81
2022/09/15 06:30:59;;;;;;;1.08;0.98;;;;;;;20.27;65.39;94683.78;4936994;29;20669;-81
2022/09/15 06:33:27;;;;;;;1.10;1.00;;;;;;;20.38;65.59;94687.25;4937406;29;20639;-81
2022/09/15 06:35:54;;;;;;;0.98;0.90;;;;;;;20.29;65.67;94686.16;4936736;28;20237;-81
2022/09/15 06:38:20;;;;;;;2.03;1.00;;;;;;;20.38;66.03;94692.50;4936051;29;20253;-81
2022/09/15 06:40:55;;;;;;;1.45;1.00;;;;;;;20.38;65.86;94689.09;4935403;29;20233;-81
2022/09/15 06:43:21;;;;;;;1.60;1.00;;;;;;;20.34;66.18;94694.81;4936774;29;20877;-81
2022/09/15 06:45:48;;;;;;;1.48;1.02;;;;;;;20.33;66.49;94701.06;4936604;28;20289;-81
2022/09/15 06:48:14;;;;;;;1.05;0.73;;;;;;;20.31;66.77;94697.94;4937640;29;20233;-81
2022/09/15 06:50:42;;;;;;;1.50;1.05;;;;;;;20.37;66.82;94701.38;4937107;29;20214;-81
2022/09/15 06:53:08;;;;;;;1.60;1.13;;;;;;;20.33;68.10;94716.75;4937135;29;20206;-81
2022/09/15 06:55:34;;;;;;;1.27;0.90;;;;;;;20.21;69.04;94723.25;4936650;28;20292;-81
2022/09/15 06:58:01;;;;;;;3.58;1.00;;;;;;;19.93;71.68;94708.78;4937100;29;20629;-81
2022/09/15 07:00:28;;;;;;;1.50;1.10;;;;;;;20.02;72.73;94718.47;4937287;29;20626;-81
2022/09/15 07:02:55;;;;;;;1.38;1.10;;;;;;;20.02;73.07;94722.94;4933008;29;20229;-81
2022/09/15 07:05:24;;;;;;;1.25;1.08;;;;;;;19.83;74.15;94709.53;4932047;28;20233;-81
2022/09/15 07:07:51;;;;;;;1.40;1.00;;;;;;;19.82;74.59;94720.25;4937888;29;20237;-81
2022/09/15 07:10:18;;;;;;;1.85;1.00;;;;;;;19.83;74.47;94719.19;4937865;29;20206;-81
2022/09/15 07:12:45;;;;;;;1.27;1.10;;;;;;;19.86;74.97;94726.53;4937812;29;20670;-81
2022/09/15 07:15:12;;;;;;;1.60;1.27;;;;;;;19.97;74.45;94720.31;4936678;28;20319;-81
2022/09/15 07:17:38;;;;;;;1.77;1.00;;;;;;;19.88;74.43;94717.38;4937112;29;20682;-81
2022/09/15 07:20:05;;;;;;;1.88;1.00;;;;;;;19.87;74.43;94722.88;4936393;29;20217;-81
2022/09/15 07:22:32;;;;;;;1.05;0.98;;;;;;;19.89;74.10;94721.56;4937960;29;20281;-81
2022/09/15 07:25:00;;;;;;;1.33;1.05;;;;;;;20.01;73.86;94729.97;4939457;28;20304;-81
2022/09/15 07:27:30;;;;;;;1.00;0.90;;;;;;;19.97;73.65;94726.31;4941017;29;20201;-83
2022/09/15 07:29:57;;;;;;;1.27;1.17;;;;;;;20.10;73.61;94725.06;4936884;29;20602;-83
2022/09/15 07:32:24;;;;;;;2.78;1.13;;;;;;;20.22;72.82;94717.75;4936258;29;20292;-83
2022/09/15 07:34:51;;;;;;;1.30;1.00;;;;;;;20.32;72.34;94711.78;4935819;28;20757;-84
2022/09/15 07:37:17;;;;;;;1.15;1.00;;;;;;;20.37;71.47;94716.28;4936706;29;20217;-84
2022/09/15 07:39:44;;;;;;;1.63;1.20;;;;;;;20.51;71.36;94725.19;4936164;29;20269;-83
2022/09/15 07:42:11;;;;;;;2.83;1.10;;;;;;;20.57;70.71;94727.56;4936544;29;20252;-83
2022/09/15 07:44:38;;;;;;;2.92;1.20;;;;;;;20.66;69.94;94722.59;4935906;28;20285;-83
2022/09/15 07:47:04;;;;;;;1.30;1.00;;;;;;;20.71;69.37;94719.97;4937038;29;20205;-83
2022/09/15 07:49:31;;;;;;;1.40;1.30;;;;;;;20.75;68.41;94728.09;4936603;29;20220;-83
2022/09/15 07:51:57;;;;;;;1.20;1.10;;;;;;;20.80;68.35;94725.47;4936087;29;20796;-83
2022/09/15 07:54:24;;;;;;;1.45;1.00;;;;;;;20.82;68.51;94726.78;4937949;29;20225;-83
2022/09/15 07:56:50;;;;;;;2.22;1.20;;;;;;;20.83;67.94;94723.13;4939526;28;20244;-84
2022/09/15 07:59:18;;;;;;;1.45;1.13;;;;;;;20.88;67.46;94725.75;4939748;29;20708;-83
2022/09/15 08:01:44;;;;;;;1.20;1.10;;;;;;;20.88;67.25;94725.75;4938675;29;20217;-83
2022/09/15 08:04:11;;;;;;;1.88;1.10;;;;;;;20.86;67.79;94727.03;4939551;29;20237;-81
2022/09/15 08:06:37;;;;;;;1.60;1.05;;;;;;;20.84;67.80;94723.91;4939051;28;20237;-81
2022/09/15 08:09:04;;;;;;;1.40;1.10;;;;;;;20.75;67.89;94731.50;4939563;29;20206;-81
2022/09/15 08:11:30;;;;;;;1.55;1.15;;;;;;;20.77;67.84;94724.19;4940014;29;20230;-81
2022/09/15 08:14:01;;;;;;;1.20;1.10;;;;;;;20.73;67.81;94732.81;4941180;29;20228;-81
2022/09/15 08:16:29;;;;;;;1.23;1.13;;;;;;;20.82;68.01;94737.25;4939465;29;20785;-81
2022/09/15 08:18:55;;;;;;;1.92;1.10;;;;;;;20.83;67.98;94733.59;4940513;29;20673;-81
2022/09/15 08:21:23;;;;;;;3.55;1.08;;;;;;;20.92;67.70;94737.25;4939384;29;20206;-81
2022/09/15 08:23:51;;;;;;;1.75;0.98;;;;;;;21.07;67.58;94731.25;4939741;29;20602;-81
2022/09/15 08:26:18;;;;;;;3.17;0.93;;;;;;;21.09;67.03;94720.50;4939262;28;20268;-81
2022/09/15 08:28:44;;;;;;;1.63;1.10;;;;;;;21.22;66.61;94727.84;4939507;29;20220;-81
2022/09/15 08:31:13;;;;;;;3.05;1.30;;;;;;;21.37;66.31;94727.81;4939148;29;20214;-81
2022/09/15 08:33:41;;;;;;;1.48;1.00;;;;;;;21.41;66.33;94733.31;4939344;29;20228;-81
2022/09/15 08:36:10;;;;;;;1.08;0.90;;;;;;;21.38;65.25;94734.63;4938343;28;20320;-81
2022/09/15 08:38:38;;;;;;;1.15;1.05;;;;;;;21.68;64.56;94718.06;4939217;29;20292;-81
2022/09/15 08:41:07;;;;;;;1.92;1.17;;;;;;;21.81;63.71;94727.19;4938340;29;20205;-81
2022/09/15 08:43:39;;;;;;;1.27;0.93;;;;;;;21.97;63.87;94721.63;4939476;29;20240;-81
2022/09/15 08:46:10;;;;;;;1.65;1.13;;;;;;;21.99;63.25;94726.59;4939647;28;20233;-81
2022/09/15 08:48:45;;;;;;;1.63;1.17;;;;;;;22.24;62.12;94736.22;4939226;29;20201;-81
2022/09/15 08:51:20;;;;;;;4.07;1.10;;;;;;;22.65;61.74;94727.06;4939649;29;20208;-81
2022/09/15 08:53:53;;;;;;;2.00;1.10;;;;;;;22.98;59.94;94717.66;4939362;29;20225;-81
2022/09/15 08:56:21;;;;;;;1.75;0.90;;;;;;;22.95;59.38;94725.31;4939498;28;20244;-81
2022/09/15 08:58:47;;;;;;;1.25;1.10;;;;;;;22.73;59.79;94725.69;4940797;29;20292;-81
2022/09/15 09:01:28;;;;;;;0.93;0.93;;;;;;;22.49;60.36;94723.00;4938904;29;20269;-80
2022/09/15 09:04:33;;;;;;;1.75;0.95;;;;;;;22.26;60.92;94732.28;4939449;29;20292;-80
2022/09/15 09:07:14;;;;;;;2.15;1.10;;;;;;;22.15;60.83;94727.34;4939441;28;20365;-81
2022/09/15 09:09:49;;;;;;;1.23;1.10;;;;;;;22.18;61.65;94719.72;4939162;29;20209;-80
2022/09/15 09:12:39;;;;;;;1.55;1.10;;;;;;;22.15;61.10;94722.09;4938949;29;20208;-80
2022/09/15 09:15:21;;;;;;;1.73;1.20;;;;;;;22.03;61.01;94719.81;4939062;28;20324;-80
2022/09/15 09:18:19;;;;;;;2.13;0.90;;;;;;;22.09;61.38;94726.59;4940711;29;20209;-80
2022/09/15 09:20:58;;;;;;;1.00;1.00;;;;;;;22.16;61.49;94734.16;4938806;29;20297;-79
2022/09/15 09:23:28;;;;;;;2.08;1.40;;;;;;;22.00;61.53;94722.97;4940218;29;20249;-80
2022/09/15 09:25:56;;;;;;;1.27;1.02;;;;;;;21.84;61.65;94721.44;4941348;28;20241;-80
2022/09/15 09:28:31;;;;;;;2.33;1.00;;;;;;;21.88;62.07;94722.47;4943501;29;20209;-79
2022/09/15 09:31:02;;;;;;;1.20;1.10;;;;;;;21.85;62.00;94720.38;4941914;29;20209;-80
2022/09/15 09:33:36;;;;;;;1.10;1.00;;;;;;;21.90;62.19;94717.75;4943091;29;20225;-80
2022/09/15 09:36:05;;;;;;;2.13;1.10;;;;;;;21.98;62.27;94717.16;4943365;28;20740;-80
2022/09/15 09:38:36;;;;;;;2.30;1.10;;;;;;;21.95;61.78;94712.47;4943871;29;20205;-80
2022/09/15 09:41:07;;;;;;;2.88;1.30;;;;;;;21.97;61.64;94707.72;4943874;29;20682;-80
2022/09/15 09:43:33;;;;;;;1.27;1.08;;;;;;;22.08;61.53;94722.41;4944619;29;20225;-79
2022/09/15 09:46:00;;;;;;;1.10;1.00;;;;;;;22.28;61.10;94713.66;4945394;28;20237;-81
2022/09/15 09:48:28;;;;;;;2.85;1.40;;;;;;;22.40;60.12;94711.47;4945136;29;20558;-80
2022/09/15 09:50:55;;;;;;;2.53;1.23;;;;;;;22.38;59.69;94708.34;4942753;29;20801;-81
2022/09/15 09:53:29;;;;;;;3.17;1.30;;;;;;;22.70;58.84;94705.28;4942867;29;20221;-80
2022/09/15 09:56:16;;;;;;;1.08;0.98;;;;;;;23.10;58.49;94693.66;4942556;28;20264;-81
2022/09/15 09:58:43;;;;;;;1.17;1.00;;;;;;;23.32;57.89;94693.19;4942642;29;20312;-79
2022/09/15 10:01:11;;;;;;;2.13;1.25;;;;;;;23.46;57.63;94683.63;4941281;29;20689;-80
2022/09/15 10:03:40;;;;;;;1.80;1.10;;;;;;;23.51;58.06;94682.75;4941892;29;20284;-81
2022/09/15 10:06:12;;;;;;;1.48;1.10;;;;;;;23.41;57.77;94686.28;4941839;29;20237;-81
2022/09/15 10:08:53;;;;;;;1.00;1.00;;;;;;;23.09;57.55;94686.88;4941437;29;20209;-81
2022/09/15 10:11:21;;;;;;;1.15;1.05;;;;;;;22.78;56.60;94682.91;4940656;29;20241;-81
2022/09/15 10:13:53;;;;;;;3.10;0.98;;;;;;;22.68;56.88;94689.00;4940876;29;20221;-80
2022/09/15 10:16:21;;;;;;;1.75;1.00;;;;;;;22.58;57.32;94671.47;4941281;28;20241;-81
2022/09/15 10:18:49;;;;;;;1.52;0.93;;;;;;;22.56;57.79;94685.94;4940754;29;20237;-81
2022/09/15 10:21:22;;;;;;;1.50;1.23;;;;;;;22.49;57.91;94693.34;4940021;29;20681;-81
2022/09/15 10:23:49;;;;;;;1.05;0.98;;;;;;;22.35;57.92;94695.78;4940669;29;20237;-81
2022/09/15 10:26:22;;;;;;;1.40;1.00;;;;;;;22.25;56.97;94698.47;4940581;28;20261;-81
2022/09/15 10:29:15;;;;;;;2.88;1.00;;;;;;;22.42;56.92;94679.75;4941390;29;20209;-81
2022/09/15 10:31:43;;;;;;;1.00;1.00;;;;;;;22.52;56.38;94687.53;4940257;29;20213;-80
2022/09/15 10:34:29;;;;;;;1.08;0.98;;;;;;;22.51;56.80;94680.75;4940623;29;20245;-81
2022/09/15 10:37:05;;;;;;;2.88;0.90;;;;;;;22.42;55.83;94698.09;4940153;28;20271;-80
2022/09/15 10:39:47;;;;;;;2.45;0.80;;;;;;;22.25;56.02;94703.72;4940079;29;20624;-81
2022/09/15 10:42:19;;;;;;;1.42;0.88;;;;;;;22.02;56.59;94700.66;4939067;29;20216;-81
2022/09/15 10:44:56;;;;;;;4.05;0.80;;;;;;;21.90;57.09;94692.31;4939746;28;20236;-80
2022/09/15 10:47:38;;;;;;;3.00;1.00;;;;;;;21.85;57.07;94700.19;4939910;29;20273;-80
2022/09/15 10:50:13;;;;;;;2.97;1.05;;;;;;;21.98;57.74;94706.69;4940282;29;20257;-79
2022/09/15 10:52:52;;;;;;;1.13;1.02;;;;;;;22.14;57.86;94700.34;4941652;29;20256;-78
2022/09/15 10:55:32;;;;;;;1.63;0.90;;;;;;;22.24;57.89;94702.91;4940067;28;20226;-80
2022/09/15 10:58:23;;;;;;;2.70;1.10;;;;;;;22.29;57.80;94695.03;4938595;29;20205;-80
2022/09/15 11:00:56;;;;;;;1.02;0.93;;;;;;;22.29;57.44;94694.25;4945266;29;20268;-80
2022/09/15 11:03:40;;;;;;;1.13;1.00;;;;;;;22.32;57.60;94691.84;4944000;29;20513;-79
2022/09/15 11:06:16;;;;;;;1.65;1.00;;;;;;;22.44;57.16;94690.75;4944349;28;20731;-80
2022/09/15 11:09:00;;;;;;;1.33;1.23;;;;;;;22.55;57.58;94686.97;4943639;29;20212;-80
2022/09/15 11:11:39;;;;;;;2.22;1.17;;;;;;;22.71;57.02;94683.97;4943590;29;20209;-80
2022/09/15 11:14:18;;;;;;;2.10;0.93;;;;;;;22.79;56.77;94687.91;4944757;29;20273;-80
2022/09/15 11:17:00;;;;;;;1.63;1.30;;;;;;;22.81;57.30;94677.91;4942515;29;20232;-80
2022/09/15 11:19:44;;;;;;;1.60;1.00;;;;;;;22.69;57.72;94680.09;4943637;29;20218;-81
2022/09/15 11:22:16;;;;;;;1.08;0.90;;;;;;;22.62;57.60;94690.09;4943635;29;20225;-81
2022/09/15 11:24:48;;;;;;;2.17;0.93;;;;;;;22.62;58.00;94685.63;4942396;28;20248;-81
2022/09/15 11:27:22;;;;;;;1.15;1.00;;;;;;;22.67;57.95;94677.72;4943052;29;20209;-81
2022/09/15 11:30:03;;;;;;;1.27;1.00;;;;;;;22.79;58.78;94682.66;4944198;29;20300;-81
2022/09/15 11:32:36;;;;;;;2.22;1.00;;;;;;;22.70;58.11;94679.81;4943674;29;20212;-81
2022/09/15 11:35:25;;;;;;;1.65;1.25;;;;;;;22.75;57.08;94678.97;4942513;28;20763;-81
2022/09/15 11:37:55;;;;;;;1.80;1.13;;;;;;;22.66;57.12;94688.50;4942687;29;20209;-81
2022/09/15 11:40:28;;;;;;;2.60;1.25;;;;;;;22.72;57.45;94680.28;4942603;29;20229;-81
2022/09/15 11:43:03;;;;;;;2.45;1.30;;;;;;;22.80;57.24;94683.44;4943647;29;20240;-80
2022/09/15 11:45:35;;;;;;;1.92;1.10;;;;;;;22.88;57.54;94673.13;4943354;28;20260;-81
2022/09/15 11:48:11;;;;;;;1.92;1.05;;;;;;;22.92;57.15;94676.75;4942088;29;20205;-81
2022/09/15 11:50:42;;;;;;;3.35;1.83;;;;;;;22.88;56.32;94672.34;4941875;29;20651;-81